Velkommen til

Stord Flyklubb

Om oss

Historien til Stord Flyklubb

Klubbens aner strekker seg tilbake til 1969 med sjøfly. Siden har vi sett vanlige motorfly og glidefly, men det er sportsfly som er hovedfokuset i dag

"Me har gjort det som menneskja har drøymd om frå gamalt av, det dei misunner fuglane, det vil seia, me har floge"

Salman Rushdie

Bli pilot

Alle kan lære å fly!

Ta en prøvetur hos oss og se hvor moro det er! Prøveturen gir deg en mulighet til å se om dette er noe du har lyst til å gå videre med.

Teorien tas av de fleste som hjemmeundervisning. Nytt læremateriell gjør opplæringen både enklere og mer strømlinjeformet.

Praksis kan påbegynnes mens man tar teorien, men teorien må være bestått før man kan fly solo. 

Haugesund
ENHD 140120Z AUTO 17004KT 6000 RA VV003 13/13 Q1010 ENHD 140050Z AUTO 18005KT 7000 RA VV003 13/13 Q1010 ENHD 140020Z AUTO 19007KT 6000 DZ VV002 13/13 Q1010 REUP ENHD 132350Z AUTO 18007KT 6000 -DZ VV002 13/13 Q1011 ENHD 132320Z AUTO 18007KT 6000 DZ VV002 13/13 Q1011 RERA ENHD 132250Z AUTO 18008KT 3300 DZ VV002 13/13 Q1011 TAF COR ENHD 131700Z 1318/1324 17012KT 7000 -RA SCT005 BKN012 TEMPO 1318/1324 3000 SHRA BR BKN004 FEW020CB PROB30 1322/1324 1200 BCFG OVC002
Flesland
ENBR 140050Z 14006KT 9999 -RA BKN006 12/12 Q1010 RMK WIND 1200FT 19009KT ENBR 140020Z 13006KT 9999 -DZ FEW004 BKN006 12/12 Q1010 RMK WIND 1200FT 16012KT ENBR 132350Z 14007KT 9999 -DZ FEW004 BKN007 12/12 Q1010 RMK WIND 1200FT 15012KT ENBR 132320Z 13006KT 9999 -RADZ FEW005 BKN007 12/12 Q1011 RMK WIND 1200FT 14011KT TAF ENBR 1400/1424 14008KT 9999 -RA SCT008 BKN020 TEMPO 1400/1416 3000 SHRA BR BKN005 SCT020CB PROB30 1400/1408 1200 BR OVC003